createdAt,value
2022-11-17T00:00:38.189Z,938.84
2022-11-17T00:01:38.093Z,938.86
2022-11-17T00:02:38.064Z,938.81
2022-11-17T00:03:38.143Z,938.84
2022-11-17T00:04:37.817Z,938.86
2022-11-17T00:05:37.727Z,938.84
2022-11-17T00:06:37.635Z,938.86
2022-11-17T00:07:37.570Z,938.85
2022-11-17T00:08:37.555Z,938.88
2022-11-17T00:09:37.357Z,938.88
2022-11-17T00:10:37.249Z,938.86
2022-11-17T00:11:37.157Z,938.86
2022-11-17T00:12:37.067Z,938.84
2022-11-17T00:13:37.251Z,938.82
2022-11-17T00:14:36.920Z,938.81
2022-11-17T00:15:36.798Z,938.84
2022-11-17T00:16:36.729Z,938.81
2022-11-17T00:17:36.620Z,938.85
2022-11-17T00:18:36.556Z,938.85
2022-11-17T00:19:36.468Z,938.84
2022-11-17T00:20:36.366Z,938.86
2022-11-17T00:21:36.262Z,938.87
2022-11-17T00:22:36.179Z,938.88
2022-11-17T00:23:36.279Z,938.86
2022-11-17T00:24:35.991Z,938.87
2022-11-17T00:25:35.912Z,938.83
2022-11-17T00:26:35.824Z,938.82
2022-11-17T00:27:35.742Z,938.81
2022-11-17T00:28:35.641Z,938.83
2022-11-17T00:29:39.126Z,938.82
2022-11-17T00:30:35.483Z,938.83
2022-11-17T00:31:35.372Z,938.85
2022-11-17T00:32:35.283Z,938.81
2022-11-17T00:33:35.543Z,938.80
2022-11-17T00:34:35.096Z,938.81
2022-11-17T00:35:35.013Z,938.76
2022-11-17T00:36:34.937Z,938.74
2022-11-17T00:37:34.827Z,938.72
2022-11-17T00:38:34.752Z,938.72
2022-11-17T00:39:34.654Z,938.69
2022-11-17T00:40:34.589Z,938.66
2022-11-17T00:41:34.465Z,938.71
2022-11-17T00:42:34.390Z,938.69
2022-11-17T00:43:34.550Z,938.67
2022-11-17T00:44:34.192Z,938.64
2022-11-17T00:45:34.115Z,938.57
2022-11-17T00:46:34.004Z,938.52
2022-11-17T00:47:33.925Z,938.45
2022-11-17T00:48:33.817Z,938.41
2022-11-17T00:49:33.737Z,938.44
2022-11-17T00:50:33.676Z,938.42
2022-11-17T00:51:33.556Z,938.45
2022-11-17T00:52:33.473Z,938.48
2022-11-17T00:53:33.802Z,938.49
2022-11-17T00:54:33.292Z,938.49
2022-11-17T00:55:33.230Z,938.53
2022-11-17T00:56:33.136Z,938.53
2022-11-17T00:57:33.035Z,938.51
2022-11-17T00:58:32.930Z,938.52
2022-11-17T00:59:32.848Z,938.50
2022-11-17T01:00:32.752Z,938.55
2022-11-17T01:01:32.722Z,938.50
2022-11-17T01:02:32.572Z,938.50
2022-11-17T01:03:32.684Z,938.52
2022-11-17T01:04:32.379Z,938.49
2022-11-17T01:05:33.277Z,938.52
2022-11-17T01:06:32.221Z,938.52
2022-11-17T01:07:32.163Z,938.47
2022-11-17T01:08:32.032Z,938.48
2022-11-17T01:09:31.932Z,938.48
2022-11-17T01:10:31.847Z,938.50
2022-11-17T01:11:31.772Z,938.51
2022-11-17T01:12:31.664Z,938.46
2022-11-17T01:13:31.688Z,938.42
2022-11-17T01:14:31.490Z,938.39
2022-11-17T01:15:31.391Z,938.35
2022-11-17T01:16:31.324Z,938.40
2022-11-17T01:17:31.242Z,938.35
2022-11-17T01:18:31.134Z,938.34
2022-11-17T01:19:31.045Z,938.32
2022-11-17T01:20:30.946Z,938.33
2022-11-17T01:21:30.864Z,938.35
2022-11-17T01:22:30.782Z,938.34
2022-11-17T01:23:30.684Z,938.39
2022-11-17T01:24:30.588Z,938.36
2022-11-17T01:25:30.504Z,938.35
2022-11-17T01:26:30.424Z,938.38
2022-11-17T01:27:30.348Z,938.37
2022-11-17T01:28:30.240Z,938.36
2022-11-17T01:29:30.134Z,938.39
2022-11-17T01:30:30.045Z,938.35
2022-11-17T01:31:29.990Z,938.37
2022-11-17T01:32:29.874Z,938.38
2022-11-17T01:33:29.804Z,938.33
2022-11-17T01:34:29.917Z,938.29
2022-11-17T01:35:29.818Z,938.26
2022-11-17T01:36:29.602Z,938.32
2022-11-17T01:37:29.569Z,938.29
2022-11-17T01:38:30.670Z,938.29
2022-11-17T01:39:29.438Z,938.26
2022-11-17T01:40:29.349Z,938.27
2022-11-17T01:41:29.246Z,938.29
2022-11-17T01:42:29.423Z,938.30
2022-11-17T01:43:29.244Z,938.31
2022-11-17T01:44:28.933Z,938.30
2022-11-17T01:45:28.932Z,938.26
2022-11-17T01:46:28.688Z,938.24
2022-11-17T01:47:28.658Z,938.23
2022-11-17T01:48:28.549Z,938.22
2022-11-17T01:49:35.637Z,938.17
2022-11-17T01:50:28.350Z,938.23
2022-11-17T01:51:28.467Z,938.23
2022-11-17T01:52:28.174Z,938.28
2022-11-17T01:53:29.024Z,938.22
2022-11-17T01:54:28.138Z,938.21
2022-11-17T01:55:28.155Z,938.27
2022-11-17T01:56:27.804Z,938.23
2022-11-17T01:57:27.742Z,938.23
2022-11-17T01:58:27.771Z,938.26
2022-11-17T01:59:27.586Z,938.24
2022-11-17T02:00:27.485Z,938.26
2022-11-17T02:01:27.439Z,938.31
2022-11-17T02:02:27.445Z,938.31
2022-11-17T02:03:27.256Z,938.25
2022-11-17T02:04:27.212Z,938.28
2022-11-17T02:05:27.877Z,938.20
2022-11-17T02:06:27.224Z,938.20
2022-11-17T02:07:27.107Z,938.18
2022-11-17T02:08:26.872Z,938.13
2022-11-17T02:09:26.738Z,938.12
2022-11-17T02:10:26.743Z,938.14
2022-11-17T02:11:26.573Z,938.15
2022-11-17T02:12:26.568Z,938.16
2022-11-17T02:13:26.414Z,938.13
2022-11-17T02:14:26.310Z,938.15
2022-11-17T02:15:26.252Z,938.15
2022-11-17T02:16:26.201Z,938.13
2022-11-17T02:17:26.303Z,938.07
2022-11-17T02:18:25.929Z,938.10
2022-11-17T02:19:25.832Z,938.05
2022-11-17T02:20:25.851Z,938.05
2022-11-17T02:21:25.765Z,938.04
2022-11-17T02:22:25.650Z,937.99
2022-11-17T02:23:25.697Z,938.03
2022-11-17T02:24:25.502Z,938.02
2022-11-17T02:25:27.105Z,938.00
2022-11-17T02:26:25.319Z,937.99
2022-11-17T02:27:25.133Z,937.98
2022-11-17T02:28:25.172Z,937.96
2022-11-17T02:29:24.966Z,937.94
2022-11-17T02:30:24.813Z,937.91
2022-11-17T02:31:24.745Z,937.91
2022-11-17T02:32:24.643Z,937.88
2022-11-17T02:33:24.553Z,937.88
2022-11-17T02:34:24.466Z,937.83
2022-11-17T02:35:24.374Z,937.85
2022-11-17T02:36:24.304Z,937.86
2022-11-17T02:37:24.248Z,937.84
2022-11-17T02:38:24.094Z,937.83
2022-11-17T02:39:24.008Z,937.83
2022-11-17T02:40:23.903Z,937.81
2022-11-17T02:41:23.827Z,937.80
2022-11-17T02:42:23.744Z,937.79
2022-11-17T02:43:23.654Z,937.81
2022-11-17T02:44:23.554Z,937.79
2022-11-17T02:45:23.474Z,937.80
2022-11-17T02:46:23.364Z,937.82
2022-11-17T02:47:23.310Z,937.81
2022-11-17T02:48:23.199Z,937.74
2022-11-17T02:49:23.115Z,937.74
2022-11-17T02:50:27.994Z,937.76
2022-11-17T02:51:23.935Z,937.72
2022-11-17T02:52:22.856Z,937.72
2022-11-17T02:53:22.754Z,937.73
2022-11-17T02:54:22.674Z,937.73
2022-11-17T02:55:22.573Z,937.73
2022-11-17T02:56:22.486Z,937.81
2022-11-17T02:57:22.399Z,937.78
2022-11-17T02:58:22.287Z,937.82
2022-11-17T02:59:22.200Z,937.84
2022-11-17T03:00:22.101Z,937.88
2022-11-17T03:01:22.116Z,937.86
2022-11-17T03:02:21.932Z,937.81
2022-11-17T03:03:21.818Z,937.83
2022-11-17T03:04:21.738Z,937.76
2022-11-17T03:05:21.621Z,937.76
2022-11-17T03:06:21.522Z,937.72
2022-11-17T03:07:21.540Z,937.71
2022-11-17T03:08:21.301Z,937.67
2022-11-17T03:09:21.249Z,937.66
2022-11-17T03:10:21.120Z,937.69
2022-11-17T03:11:21.028Z,937.68
2022-11-17T03:12:20.959Z,937.64
2022-11-17T03:13:20.872Z,937.61
2022-11-17T03:14:20.750Z,937.61
2022-11-17T03:15:20.641Z,937.57
2022-11-17T03:16:20.530Z,937.54
2022-11-17T03:17:20.451Z,937.57
2022-11-17T03:18:20.370Z,937.57
2022-11-17T03:19:20.241Z,937.52
2022-11-17T03:20:20.142Z,937.52
2022-11-17T03:21:20.073Z,937.54
2022-11-17T03:22:19.961Z,937.51
2022-11-17T03:23:19.893Z,937.54
2022-11-17T03:24:19.822Z,937.50
2022-11-17T03:25:19.703Z,937.56
2022-11-17T03:26:19.610Z,937.52
2022-11-17T03:27:19.529Z,937.52
2022-11-17T03:28:19.474Z,937.49
2022-11-17T03:29:19.361Z,937.49
2022-11-17T03:30:19.243Z,937.43
2022-11-17T03:31:19.146Z,937.42
2022-11-17T03:32:19.047Z,937.38
2022-11-17T03:33:18.965Z,937.36
2022-11-17T03:34:18.876Z,937.32
2022-11-17T03:35:18.756Z,937.27
2022-11-17T03:36:18.663Z,937.29
2022-11-17T03:37:18.555Z,937.29
2022-11-17T03:38:18.478Z,937.30
2022-11-17T03:39:18.397Z,937.34
2022-11-17T03:40:18.286Z,937.32
2022-11-17T03:41:18.190Z,937.32
2022-11-17T03:42:18.105Z,937.29
2022-11-17T03:43:18.015Z,937.31
2022-11-17T03:44:17.933Z,937.25
2022-11-17T03:45:17.815Z,937.28
2022-11-17T03:46:17.729Z,937.22
2022-11-17T03:47:17.617Z,937.23
2022-11-17T03:48:17.540Z,937.23
2022-11-17T03:49:17.450Z,937.24
2022-11-17T03:50:17.347Z,937.25
2022-11-17T03:51:17.259Z,937.27
2022-11-17T03:52:17.170Z,937.30
2022-11-17T03:53:17.099Z,937.27
2022-11-17T03:54:16.980Z,937.31
2022-11-17T03:55:16.909Z,937.30
2022-11-17T03:56:16.815Z,937.27
2022-11-17T03:57:16.730Z,937.25
2022-11-17T03:58:16.626Z,937.28
2022-11-17T03:59:16.545Z,937.29
2022-11-17T04:00:16.469Z,937.30
2022-11-17T04:01:16.404Z,937.23
2022-11-17T04:02:16.262Z,937.22
2022-11-17T04:03:16.193Z,937.23
2022-11-17T04:04:16.090Z,937.25
2022-11-17T04:05:16.009Z,937.26
2022-11-17T04:06:15.904Z,937.23
2022-11-17T04:07:15.892Z,937.29
2022-11-17T04:08:15.722Z,937.25
2022-11-17T04:09:19.903Z,937.28
2022-11-17T04:10:16.572Z,937.22
2022-11-17T04:11:15.471Z,937.21
2022-11-17T04:12:15.371Z,937.20
2022-11-17T04:13:15.280Z,937.13
2022-11-17T04:14:15.193Z,937.13
2022-11-17T04:15:15.123Z,937.09
2022-11-17T04:16:15.020Z,937.07
2022-11-17T04:17:14.924Z,937.06
2022-11-17T04:18:14.832Z,937.07
2022-11-17T04:19:14.746Z,937.04
2022-11-17T04:20:14.683Z,937.05
2022-11-17T04:21:14.591Z,937.03
2022-11-17T04:22:14.479Z,937.01
2022-11-17T04:23:14.523Z,937.03
2022-11-17T04:24:14.316Z,936.96
2022-11-17T04:25:14.254Z,936.98
2022-11-17T04:26:14.131Z,937.00
2022-11-17T04:27:14.076Z,937.02
2022-11-17T04:28:13.969Z,937.04
2022-11-17T04:29:13.849Z,937.04
2022-11-17T04:30:13.777Z,937.08
2022-11-17T04:31:13.688Z,937.01
2022-11-17T04:32:13.583Z,937.04
2022-11-17T04:33:13.504Z,937.00
2022-11-17T04:34:13.396Z,937.01
2022-11-17T04:35:13.349Z,936.99
2022-11-17T04:36:13.226Z,936.90
2022-11-17T04:37:13.148Z,936.90
2022-11-17T04:38:13.067Z,936.94
2022-11-17T04:39:12.961Z,936.90
2022-11-17T04:40:12.878Z,936.89
2022-11-17T04:41:12.797Z,936.91
2022-11-17T04:42:12.698Z,936.90
2022-11-17T04:43:12.630Z,936.84
2022-11-17T04:44:12.550Z,936.84
2022-11-17T04:45:12.467Z,936.77
2022-11-17T04:46:12.345Z,936.79
2022-11-17T04:47:12.322Z,936.75
2022-11-17T04:48:12.179Z,936.73
2022-11-17T04:49:12.061Z,936.76
2022-11-17T04:50:11.994Z,936.70
2022-11-17T04:51:11.889Z,936.72
2022-11-17T04:52:11.790Z,936.72
2022-11-17T04:53:12.082Z,936.65
2022-11-17T04:54:11.602Z,936.61
2022-11-17T04:55:11.491Z,936.58
2022-11-17T04:56:11.418Z,936.52
2022-11-17T04:57:11.301Z,936.51
2022-11-17T04:58:11.206Z,936.51
2022-11-17T04:59:11.112Z,936.48
2022-11-17T05:00:10.995Z,936.51
2022-11-17T05:01:10.932Z,936.51
2022-11-17T05:02:10.859Z,936.50
2022-11-17T05:03:10.735Z,936.54
2022-11-17T05:04:10.643Z,936.61
2022-11-17T05:05:10.545Z,936.60
2022-11-17T05:06:10.478Z,936.62
2022-11-17T05:07:10.454Z,936.65
2022-11-17T05:08:10.286Z,936.59
2022-11-17T05:09:10.203Z,936.58
2022-11-17T05:10:10.107Z,936.59
2022-11-17T05:11:10.089Z,936.50
2022-11-17T05:12:09.937Z,936.52
2022-11-17T05:13:09.856Z,936.52
2022-11-17T05:14:09.756Z,936.47
2022-11-17T05:15:09.667Z,936.51
2022-11-17T05:16:09.597Z,936.51
2022-11-17T05:17:11.258Z,936.43
2022-11-17T05:18:09.378Z,936.42
2022-11-17T05:19:09.298Z,936.37
2022-11-17T05:20:09.209Z,936.29
2022-11-17T05:21:09.120Z,936.28
2022-11-17T05:22:09.010Z,936.27
2022-11-17T05:23:08.940Z,936.32
2022-11-17T05:24:08.853Z,936.28
2022-11-17T05:25:08.758Z,936.35
2022-11-17T05:26:08.697Z,936.32
2022-11-17T05:27:08.581Z,936.38
2022-11-17T05:28:08.476Z,936.40
2022-11-17T05:29:08.381Z,936.44
2022-11-17T05:30:08.326Z,936.46
2022-11-17T05:31:08.230Z,936.47
2022-11-17T05:32:08.122Z,936.42
2022-11-17T05:33:08.033Z,936.40
2022-11-17T05:34:07.942Z,936.39
2022-11-17T05:35:07.831Z,936.37
2022-11-17T05:36:07.773Z,936.42
2022-11-17T05:37:07.668Z,936.37
2022-11-17T05:38:07.573Z,936.42
2022-11-17T05:39:07.462Z,936.41
2022-11-17T05:40:07.366Z,936.38
2022-11-17T05:41:07.284Z,936.42
2022-11-17T05:42:07.192Z,936.45
2022-11-17T05:43:07.085Z,936.43
2022-11-17T05:44:07.019Z,936.42
2022-11-17T05:45:06.894Z,936.45
2022-11-17T05:46:06.827Z,936.47
2022-11-17T05:47:06.706Z,936.46
2022-11-17T05:48:06.616Z,936.47
2022-11-17T05:49:06.505Z,936.48
2022-11-17T05:50:06.436Z,936.51
2022-11-17T05:51:06.348Z,936.49
2022-11-17T05:52:06.240Z,936.52
2022-11-17T05:53:06.137Z,936.55
2022-11-17T05:54:06.087Z,936.52
2022-11-17T05:55:05.958Z,936.58
2022-11-17T05:56:05.892Z,936.59
2022-11-17T05:57:05.801Z,936.59
2022-11-17T05:58:05.689Z,936.61
2022-11-17T05:59:05.605Z,936.64
2022-11-17T06:00:05.504Z,936.63
2022-11-17T06:01:05.420Z,936.60
2022-11-17T06:02:05.316Z,936.59
2022-11-17T06:03:05.219Z,936.56
2022-11-17T06:04:05.463Z,936.60
2022-11-17T06:05:05.030Z,936.59
2022-11-17T06:06:04.959Z,936.59
2022-11-17T06:07:04.860Z,936.52
2022-11-17T06:08:04.750Z,936.53
2022-11-17T06:09:04.660Z,936.53
2022-11-17T06:10:04.551Z,936.54
2022-11-17T06:11:04.894Z,936.53
2022-11-17T06:12:06.445Z,936.58
2022-11-17T06:13:04.273Z,936.55
2022-11-17T06:14:04.181Z,936.56
2022-11-17T06:15:04.092Z,936.56
2022-11-17T06:16:03.992Z,936.54
2022-11-17T06:17:03.891Z,936.57
2022-11-17T06:18:03.800Z,936.57
2022-11-17T06:19:03.710Z,936.56
2022-11-17T06:20:03.593Z,936.51
2022-11-17T06:21:03.504Z,936.51
2022-11-17T06:22:12.532Z,936.54
2022-11-17T06:23:04.307Z,936.51
2022-11-17T06:24:03.213Z,936.52
2022-11-17T06:25:03.102Z,936.52
2022-11-17T06:26:03.042Z,936.49
2022-11-17T06:27:02.918Z,936.49
2022-11-17T06:28:02.854Z,936.48
2022-11-17T06:29:02.745Z,936.52
2022-11-17T06:30:02.632Z,936.51
2022-11-17T06:31:02.557Z,936.55
2022-11-17T06:32:02.464Z,936.48
2022-11-17T06:33:02.357Z,936.48
2022-11-17T06:34:02.267Z,936.41
2022-11-17T06:35:02.156Z,936.47
2022-11-17T06:36:02.093Z,936.47
2022-11-17T06:37:01.987Z,936.47
2022-11-17T06:38:01.919Z,936.46
2022-11-17T06:39:01.817Z,936.44
2022-11-17T06:40:01.714Z,936.42
2022-11-17T06:41:01.640Z,936.36
2022-11-17T06:42:01.538Z,936.40
2022-11-17T06:43:01.418Z,936.42
2022-11-17T06:44:01.418Z,936.41
2022-11-17T06:45:01.244Z,936.41
2022-11-17T06:46:01.168Z,936.44
2022-11-17T06:47:01.042Z,936.42
2022-11-17T06:48:00.969Z,936.41
2022-11-17T06:49:00.860Z,936.41
2022-11-17T06:50:00.759Z,936.41
2022-11-17T06:51:00.691Z,936.41
2022-11-17T06:52:00.585Z,936.38
2022-11-17T06:53:00.493Z,936.38
2022-11-17T06:54:00.370Z,936.33
2022-11-17T06:55:00.277Z,936.41
2022-11-17T06:56:00.199Z,936.34
2022-11-17T06:57:00.105Z,936.32
2022-11-17T06:57:59.994Z,936.27
2022-11-17T06:58:59.892Z,936.20
2022-11-17T06:59:59.803Z,936.18
2022-11-17T07:00:59.735Z,936.19
2022-11-17T07:01:59.603Z,936.13
2022-11-17T07:02:59.523Z,936.12
2022-11-17T07:03:59.416Z,936.09
2022-11-17T07:04:59.327Z,936.14
2022-11-17T07:05:59.265Z,936.15
2022-11-17T07:06:59.204Z,936.19
2022-11-17T07:07:59.077Z,936.16
2022-11-17T07:08:58.976Z,936.20
2022-11-17T07:09:58.886Z,936.22
2022-11-17T07:10:58.798Z,936.25
2022-11-17T07:11:58.698Z,936.25
2022-11-17T07:12:58.595Z,936.31
2022-11-17T07:13:58.527Z,936.32
2022-11-17T07:14:58.418Z,936.29
2022-11-17T07:15:58.366Z,936.28
2022-11-17T07:16:58.243Z,936.31
2022-11-17T07:17:58.147Z,936.36
2022-11-17T07:18:58.057Z,936.40
2022-11-17T07:19:57.986Z,936.47
2022-11-17T07:20:57.907Z,936.50
2022-11-17T07:21:57.807Z,936.53
2022-11-17T07:22:57.688Z,936.62
2022-11-17T07:23:57.624Z,936.66
2022-11-17T07:24:57.530Z,936.63
2022-11-17T07:25:57.430Z,936.67
2022-11-17T07:26:57.328Z,936.69
2022-11-17T07:27:57.242Z,936.65
2022-11-17T07:28:57.139Z,936.65
2022-11-17T07:29:57.042Z,936.66
2022-11-17T07:30:56.966Z,936.70
2022-11-17T07:31:56.863Z,936.71
2022-11-17T07:32:56.750Z,936.67
2022-11-17T07:33:56.677Z,936.67
2022-11-17T07:34:56.580Z,936.74
2022-11-17T07:35:56.532Z,936.78
2022-11-17T07:36:56.411Z,936.79
2022-11-17T07:37:56.302Z,936.83
2022-11-17T07:38:56.212Z,936.82
2022-11-17T07:39:56.112Z,936.80
2022-11-17T07:40:56.032Z,936.75
2022-11-17T07:41:55.921Z,936.75
2022-11-17T07:42:55.814Z,936.73
2022-11-17T07:43:55.723Z,936.74
2022-11-17T07:44:55.617Z,936.69
2022-11-17T07:45:55.535Z,936.72
2022-11-17T07:46:55.412Z,936.74
2022-11-17T07:47:55.420Z,936.67
2022-11-17T07:48:55.232Z,936.72
2022-11-17T07:49:55.126Z,936.64
2022-11-17T07:50:55.033Z,936.65
2022-11-17T07:51:54.955Z,936.62
2022-11-17T07:52:54.835Z,936.65
2022-11-17T07:53:54.755Z,936.65
2022-11-17T07:54:54.635Z,936.66
2022-11-17T07:55:54.546Z,936.65
2022-11-17T07:56:54.456Z,936.69
2022-11-17T07:57:54.350Z,936.64
2022-11-17T07:58:54.254Z,936.69
2022-11-17T07:59:54.162Z,936.64
2022-11-17T08:00:54.109Z,936.64
2022-11-17T08:01:53.967Z,936.63
2022-11-17T08:02:53.878Z,936.62
2022-11-17T08:03:53.872Z,936.63
2022-11-17T08:04:53.705Z,936.61
2022-11-17T08:05:53.606Z,936.70
2022-11-17T08:06:53.540Z,936.69
2022-11-17T08:07:53.398Z,936.64
2022-11-17T08:08:53.319Z,936.53
2022-11-17T08:09:53.239Z,936.40
2022-11-17T08:10:53.152Z,936.33
2022-11-17T08:11:53.048Z,936.27
2022-11-17T08:12:52.998Z,936.21
2022-11-17T08:13:52.839Z,936.18
2022-11-17T08:14:52.743Z,936.12
2022-11-17T08:15:52.671Z,936.19
2022-11-17T08:16:52.549Z,936.24
2022-11-17T08:17:52.479Z,936.28
2022-11-17T08:18:52.868Z,936.25
2022-11-17T08:19:52.290Z,936.17
2022-11-17T08:20:52.194Z,936.21
2022-11-17T08:21:52.091Z,936.23
2022-11-17T08:22:51.991Z,936.21
2022-11-17T08:23:51.893Z,936.24
2022-11-17T08:24:51.790Z,936.25
2022-11-17T08:25:51.736Z,936.30
2022-11-17T08:26:51.612Z,936.33
2022-11-17T08:27:51.512Z,936.30
2022-11-17T08:28:56.889Z,936.36
2022-11-17T08:29:52.313Z,936.34
2022-11-17T08:30:51.250Z,936.38
2022-11-17T08:31:51.149Z,936.38
2022-11-17T08:32:51.064Z,936.38
2022-11-17T08:33:50.973Z,936.35
2022-11-17T08:34:50.882Z,936.33
2022-11-17T08:35:50.815Z,936.32
2022-11-17T08:36:50.704Z,936.31
2022-11-17T08:37:50.621Z,936.32
2022-11-17T08:38:50.524Z,936.28
2022-11-17T08:39:50.461Z,936.31
2022-11-17T08:40:50.376Z,936.35
2022-11-17T08:41:50.285Z,936.34
2022-11-17T08:42:50.173Z,936.32
2022-11-17T08:43:50.089Z,936.29
2022-11-17T08:44:49.979Z,936.34
2022-11-17T08:45:49.916Z,936.42
2022-11-17T08:46:49.809Z,936.43
2022-11-17T08:47:49.727Z,936.47
2022-11-17T08:48:53.888Z,936.46
2022-11-17T08:49:50.536Z,936.49
2022-11-17T08:50:49.468Z,936.46
2022-11-17T08:51:49.357Z,936.44
2022-11-17T08:52:49.257Z,936.51
2022-11-17T08:53:49.187Z,936.51
2022-11-17T08:54:49.108Z,936.42
2022-11-17T08:55:49.062Z,936.37
2022-11-17T08:56:48.963Z,936.38
2022-11-17T08:57:48.817Z,936.40
2022-11-17T08:58:48.729Z,936.40
2022-11-17T08:59:48.658Z,936.39
2022-11-17T09:00:48.682Z,936.30
2022-11-17T09:01:48.564Z,936.32
2022-11-17T09:02:48.368Z,936.25
2022-11-17T09:03:48.286Z,936.25
2022-11-17T09:04:48.181Z,936.23
2022-11-17T09:05:48.119Z,936.27
2022-11-17T09:06:47.990Z,936.29
2022-11-17T09:07:48.064Z,936.28
2022-11-17T09:08:47.953Z,936.25
2022-11-17T09:09:47.729Z,936.26
2022-11-17T09:10:47.623Z,936.20
2022-11-17T09:11:47.513Z,936.24
2022-11-17T09:12:47.413Z,936.25
2022-11-17T09:13:47.419Z,936.26
2022-11-17T09:14:47.223Z,936.25
2022-11-17T09:15:47.149Z,936.28
2022-11-17T09:16:47.033Z,936.29
2022-11-17T09:17:46.963Z,936.37
2022-11-17T09:18:46.874Z,936.32
2022-11-17T09:19:46.772Z,936.36
2022-11-17T09:20:46.683Z,936.39
2022-11-17T09:21:46.582Z,936.41
2022-11-17T09:22:46.494Z,936.52
2022-11-17T09:23:46.427Z,936.48
2022-11-17T09:24:46.302Z,936.51
2022-11-17T09:25:46.224Z,936.52
2022-11-17T09:26:46.104Z,936.48
2022-11-17T09:27:46.022Z,936.49
2022-11-17T09:28:45.943Z,936.41
2022-11-17T09:29:45.825Z,936.39
2022-11-17T09:30:45.743Z,936.45
2022-11-17T09:31:45.743Z,936.37
2022-11-17T09:32:45.531Z,936.41
2022-11-17T09:33:45.458Z,936.46
2022-11-17T09:34:45.369Z,936.39
2022-11-17T09:35:45.267Z,936.44
2022-11-17T09:36:45.152Z,936.47
2022-11-17T09:37:45.061Z,936.48
2022-11-17T09:38:44.962Z,936.49
2022-11-17T09:39:44.858Z,936.45
2022-11-17T09:40:44.790Z,936.50
2022-11-17T09:41:44.687Z,936.51
2022-11-17T09:42:44.584Z,936.44
2022-11-17T09:43:44.488Z,936.44
2022-11-17T09:44:44.400Z,936.37
2022-11-17T09:45:44.328Z,936.40
2022-11-17T09:46:44.219Z,936.37
2022-11-17T09:47:44.121Z,936.34
2022-11-17T09:48:44.111Z,936.34
2022-11-17T09:49:43.931Z,936.29
2022-11-17T09:50:43.870Z,936.31
2022-11-17T09:51:43.760Z,936.31
2022-11-17T09:52:43.669Z,936.32
2022-11-17T09:53:43.561Z,936.34
2022-11-17T09:54:43.491Z,936.39
2022-11-17T09:55:43.391Z,936.41
2022-11-17T09:56:43.272Z,936.40
2022-11-17T09:57:43.174Z,936.41
2022-11-17T09:58:43.109Z,936.42
2022-11-17T09:59:42.999Z,936.35
2022-11-17T10:00:42.913Z,936.36
2022-11-17T10:01:42.831Z,936.32
2022-11-17T10:02:42.724Z,936.29
2022-11-17T10:03:45.952Z,936.36
2022-11-17T10:04:42.526Z,936.38
2022-11-17T10:05:42.423Z,936.35
2022-11-17T10:06:42.335Z,936.33
2022-11-17T10:07:42.224Z,936.29
2022-11-17T10:08:42.149Z,936.32
2022-11-17T10:09:42.038Z,936.41
2022-11-17T10:10:41.966Z,936.36
2022-11-17T10:11:41.858Z,936.32
2022-11-17T10:12:41.754Z,936.28
2022-11-17T10:13:41.662Z,936.21
2022-11-17T10:14:41.555Z,936.17
2022-11-17T10:15:41.467Z,936.13
2022-11-17T10:16:41.385Z,936.13
2022-11-17T10:17:41.280Z,936.08
2022-11-17T10:18:41.205Z,936.07
2022-11-17T10:19:41.100Z,936.15
2022-11-17T10:20:41.028Z,936.12
2022-11-17T10:21:40.908Z,936.05
2022-11-17T10:22:40.836Z,936.07
2022-11-17T10:23:46.131Z,936.06
2022-11-17T10:24:41.714Z,936.01
2022-11-17T10:25:40.560Z,935.99
2022-11-17T10:26:40.467Z,935.94
2022-11-17T10:27:40.370Z,936.01
2022-11-17T10:28:40.286Z,935.94
2022-11-17T10:29:40.190Z,935.93
2022-11-17T10:30:40.110Z,935.95
2022-11-17T10:31:40.008Z,935.98
2022-11-17T10:32:43.963Z,935.96
2022-11-17T10:33:40.820Z,935.98
2022-11-17T10:34:41.554Z,935.94
2022-11-17T10:35:39.632Z,935.98
2022-11-17T10:36:39.516Z,935.96
2022-11-17T10:37:39.438Z,935.95
2022-11-17T10:38:39.343Z,935.93
2022-11-17T10:39:39.230Z,935.95
2022-11-17T10:40:39.166Z,935.98
2022-11-17T10:41:39.035Z,936.01
2022-11-17T10:42:38.944Z,936.00
2022-11-17T10:43:38.968Z,935.94
2022-11-17T10:44:38.767Z,935.97
2022-11-17T10:45:38.678Z,935.97
2022-11-17T10:46:46.323Z,935.92
2022-11-17T10:47:39.475Z,935.96
2022-11-17T10:48:38.415Z,935.98
2022-11-17T10:49:38.305Z,936.04
2022-11-17T10:50:38.225Z,935.98
2022-11-17T10:51:38.125Z,935.99
2022-11-17T10:52:38.027Z,935.97
2022-11-17T10:53:44.599Z,935.94
2022-11-17T10:54:38.858Z,935.88
2022-11-17T10:55:37.774Z,935.78
2022-11-17T10:56:37.667Z,935.79
2022-11-17T10:57:37.565Z,935.80
2022-11-17T10:58:37.557Z,935.73
2022-11-17T10:59:37.377Z,935.78
2022-11-17T11:00:37.310Z,935.79
2022-11-17T11:01:37.229Z,935.79
2022-11-17T11:02:37.090Z,935.74
2022-11-17T11:03:37.158Z,935.77
2022-11-17T11:04:36.908Z,935.79
2022-11-17T11:05:36.858Z,935.79
2022-11-17T11:06:36.728Z,935.81
2022-11-17T11:07:36.666Z,935.85
2022-11-17T11:08:36.539Z,935.84
2022-11-17T11:09:36.440Z,935.84
2022-11-17T11:10:36.356Z,935.87
2022-11-17T11:11:36.588Z,935.90
2022-11-17T11:12:36.280Z,935.88
2022-11-17T11:13:36.051Z,935.87
2022-11-17T11:14:35.959Z,935.86
2022-11-17T11:15:35.904Z,935.83
2022-11-17T11:16:35.792Z,935.79
2022-11-17T11:17:35.680Z,935.80
2022-11-17T11:18:35.701Z,935.83
2022-11-17T11:19:35.481Z,935.74
2022-11-17T11:20:35.412Z,935.75
2022-11-17T11:21:35.301Z,935.75
2022-11-17T11:22:35.217Z,935.71
2022-11-17T11:23:35.157Z,935.70
2022-11-17T11:24:35.013Z,935.68
2022-11-17T11:25:34.939Z,935.71
2022-11-17T11:26:34.833Z,935.66
2022-11-17T11:27:34.735Z,935.61
2022-11-17T11:28:34.645Z,935.62
2022-11-17T11:29:34.564Z,935.59
2022-11-17T11:30:34.453Z,935.61
2022-11-17T11:31:34.406Z,935.58
2022-11-17T11:32:34.277Z,935.58
2022-11-17T11:33:34.154Z,935.66
2022-11-17T11:34:34.094Z,935.61
2022-11-17T11:35:33.966Z,935.65
2022-11-17T11:36:33.916Z,935.63
2022-11-17T11:37:33.775Z,935.62
2022-11-17T11:38:33.686Z,935.64
2022-11-17T11:39:33.593Z,935.62
2022-11-17T11:40:33.531Z,935.59
2022-11-17T11:41:33.436Z,935.61
2022-11-17T11:42:33.317Z,935.60
2022-11-17T11:43:33.227Z,935.62
2022-11-17T11:44:33.145Z,935.76
2022-11-17T11:45:33.055Z,935.86
2022-11-17T11:46:32.936Z,935.96
2022-11-17T11:47:32.846Z,936.07
2022-11-17T11:48:32.763Z,936.06
2022-11-17T11:49:32.635Z,936.02
2022-11-17T11:50:35.377Z,935.92
2022-11-17T11:51:33.449Z,935.88
2022-11-17T11:52:32.363Z,935.88
2022-11-17T11:53:32.247Z,935.89
2022-11-17T11:54:32.143Z,935.87
2022-11-17T11:55:32.037Z,935.89
2022-11-17T11:56:31.941Z,935.90
2022-11-17T11:57:31.871Z,935.93
2022-11-17T11:58:31.732Z,935.82
2022-11-17T11:59:31.646Z,935.81
2022-11-17T12:00:31.540Z,935.81
2022-11-17T12:01:31.451Z,935.80
2022-11-17T12:02:31.377Z,935.74
2022-11-17T12:03:31.428Z,935.78
2022-11-17T12:04:31.154Z,935.77
2022-11-17T12:05:31.053Z,935.82
2022-11-17T12:06:30.975Z,935.77
2022-11-17T12:07:30.975Z,935.81
2022-11-17T12:08:30.784Z,935.82
2022-11-17T12:09:30.669Z,935.75
2022-11-17T12:10:30.572Z,935.74
2022-11-17T12:11:30.458Z,935.66
2022-11-17T12:12:30.354Z,935.66
2022-11-17T12:13:30.294Z,935.69
2022-11-17T12:14:30.177Z,935.71
2022-11-17T12:15:30.078Z,935.68
2022-11-17T12:16:29.964Z,935.72
2022-11-17T12:17:29.880Z,935.69
2022-11-17T12:18:29.785Z,935.70
2022-11-17T12:19:29.694Z,935.67
2022-11-17T12:20:29.592Z,935.75
2022-11-17T12:21:29.459Z,935.65
2022-11-17T12:22:29.373Z,935.65
2022-11-17T12:23:29.269Z,935.61
2022-11-17T12:24:29.168Z,935.64
2022-11-17T12:25:29.054Z,935.69
2022-11-17T12:26:28.953Z,935.64
2022-11-17T12:27:28.819Z,935.70